Time;durP1;ratioP1;P1;durP2;ratioP2;P2;SDS_P1;SDS_P2;PMS_P1;PMS_P2;Temp;Humidity;BMP_temperature;BMP_pressure;BME280_temperature;BME280_humidity;BME280_pressure;Samples;Min_cycle;Max_cycle;Signal;HPM_P1;HPM_P2
2021/12/28 00:02:11;;;;;;;19.35;11.52;;;;;;;-0.24;68.08;98293.06;5087165;28;20090;-66
2021/12/28 00:04:43;;;;;;;16.17;10.73;;;;;;;-0.25;68.22;98293.94;5087310;28;20048;-66
2021/12/28 00:07:16;;;;;;;13.35;9.32;;;;;;;-0.25;68.20;98293.09;5087063;28;20090;-66
2021/12/28 00:09:48;;;;;;;15.13;10.93;;;;;;;-0.26;68.19;98292.25;5086982;28;20044;-66
2021/12/28 00:12:20;;;;;;;19.65;12.82;;;;;;;-0.27;68.79;98297.50;5086940;28;20040;-66
2021/12/28 00:15:05;;;;;;;13.68;10.50;;;;;;;-0.30;68.63;98294.97;5087159;28;20090;-66
2021/12/28 00:20:27;;;;;;;14.52;10.15;;;;;;;-0.28;68.16;98299.25;5087092;28;20118;-66
2021/12/28 00:23:00;;;;;;;15.40;10.77;;;;;;;-0.30;69.02;98302.78;5086649;28;20239;-66
2021/12/28 00:25:32;;;;;;;16.08;11.23;;;;;;;-0.28;69.05;98327.03;5086479;28;20037;-66
2021/12/28 00:28:04;;;;;;;17.23;11.30;;;;;;;-0.26;68.90;98304.41;5086702;28;20203;-66
2021/12/28 00:30:39;;;;;;;19.63;12.15;;;;;;;-0.33;69.59;98298.53;5086487;28;20052;-66
2021/12/28 00:33:12;;;;;;;17.13;12.65;;;;;;;-0.35;69.23;98300.31;5086762;28;20317;-66
2021/12/28 00:35:45;;;;;;;14.77;10.60;;;;;;;-0.29;68.94;98299.28;5086467;28;20044;-66
2021/12/28 00:38:22;;;;;;;16.80;11.80;;;;;;;-0.31;69.39;98288.06;5086532;28;20094;-66
2021/12/28 00:40:57;;;;;;;13.98;11.68;;;;;;;-0.31;69.10;98294.13;5086727;28;20041;-66
2021/12/28 00:43:31;;;;;;;18.20;11.88;;;;;;;-0.29;69.53;98296.69;5086574;28;20293;-66
2021/12/28 00:46:06;;;;;;;15.53;11.73;;;;;;;-0.29;69.44;98301.91;5086363;28;20304;-66
2021/12/28 00:48:39;;;;;;;15.82;9.30;;;;;;;-0.31;69.40;98301.94;5086527;28;20040;-66
2021/12/28 00:51:11;;;;;;;17.48;11.27;;;;;;;-0.34;69.99;98301.16;5086234;28;20251;-66
2021/12/28 00:53:41;;;;;;;18.08;12.13;;;;;;;-0.31;69.79;98312.34;5068737;28;20094;-66
2021/12/28 00:56:12;;;;;;;15.75;10.25;;;;;;;-0.30;69.90;98313.22;5086406;28;20128;-65
2021/12/28 00:58:42;;;;;;;15.85;11.25;;;;;;;-0.28;69.42;98316.63;5086313;28;20059;-65
2021/12/28 01:01:13;;;;;;;14.82;10.82;;;;;;;-0.28;70.29;98316.63;5086130;28;20334;-66
2021/12/28 01:03:42;;;;;;;17.85;11.48;;;;;;;-0.60;69.90;98274.13;5085975;28;20086;-66
2021/12/28 01:06:13;;;;;;;17.85;10.85;;;;;;;-0.29;69.88;98327.94;5086005;28;20048;-66
2021/12/28 01:08:43;;;;;;;17.23;11.43;;;;;;;-0.29;70.28;98333.13;5085979;28;20041;-65
2021/12/28 01:11:13;;;;;;;13.05;9.38;;;;;;;-0.28;70.24;98343.50;5085954;28;20186;-66
2021/12/28 01:13:43;;;;;;;17.63;11.50;;;;;;;-0.30;69.88;98342.69;5085865;28;20041;-66
2021/12/28 01:16:15;;;;;;;16.33;12.07;;;;;;;-0.32;70.42;98346.25;5085836;28;20064;-66
2021/12/28 01:18:44;;;;;;;14.10;8.95;;;;;;;-0.32;70.39;98341.03;5086057;28;20044;-66
2021/12/28 01:21:14;;;;;;;15.15;11.02;;;;;;;-0.31;70.34;98335.78;5085864;28;20304;-66
2021/12/28 01:23:44;;;;;;;16.13;11.57;;;;;;;-0.31;70.60;98335.78;5085460;28;20046;-66
2021/12/28 01:26:14;;;;;;;12.90;9.68;;;;;;;-0.28;70.37;98340.06;5085802;28;20040;-66
2021/12/28 01:28:45;;;;;;;17.02;11.27;;;;;;;-0.30;70.93;98339.25;5085832;28;20040;-66
2021/12/28 01:31:17;;;;;;;17.67;10.18;;;;;;;-0.28;70.08;98337.44;5085261;28;20066;-66
2021/12/28 01:33:46;;;;;;;17.85;11.10;;;;;;;-0.27;70.79;98340.00;5085373;28;20052;-66
2021/12/28 01:36:15;;;;;;;13.77;10.32;;;;;;;-0.25;70.05;98339.97;5085624;28;20047;-66
2021/12/28 01:38:46;;;;;;;14.98;9.48;;;;;;;-0.24;70.66;98333.88;5085578;28;20048;-65
2021/12/28 01:41:16;;;;;;;12.98;9.40;;;;;;;-0.28;70.91;98338.31;5085333;28;20062;-66
2021/12/28 01:43:47;;;;;;;13.85;9.27;;;;;;;-0.26;70.64;98341.72;5085183;28;20203;-66
2021/12/28 01:46:18;;;;;;;16.73;10.15;;;;;;;-0.24;70.45;98342.53;5085539;28;20086;-66
2021/12/28 01:48:47;;;;;;;16.85;10.60;;;;;;;-0.94;70.36;98236.91;5085211;28;20046;-66
2021/12/28 01:51:20;;;;;;;12.07;8.48;;;;;;;-0.21;70.73;98336.38;5085224;28;20048;-66
2021/12/28 01:53:55;;;;;;;15.65;9.50;;;;;;;-0.21;71.12;98346.78;5067970;28;20048;-66
2021/12/28 01:56:32;;;;;;;14.88;9.98;;;;;;;-0.27;71.49;98353.03;5085191;28;20045;-66
2021/12/28 01:59:05;;;;;;;13.57;9.90;;;;;;;-0.27;71.15;98353.03;5085213;28;20098;-66
2021/12/28 02:01:40;;;;;;;14.70;10.57;;;;;;;-0.28;71.81;98361.75;5085501;28;20082;-66
2021/12/28 02:04:17;;;;;;;11.57;9.80;;;;;;;-1.08;71.88;98248.50;5085101;28;20048;-66
2021/12/28 02:06:51;;;;;;;15.93;10.63;;;;;;;-0.26;71.76;98357.34;5085203;28;20087;-66
2021/12/28 02:09:23;;;;;;;14.07;11.48;;;;;;;-0.25;71.14;98353.00;5085176;28;20204;-66
2021/12/28 02:11:55;;;;;;;15.85;10.85;;;;;;;-0.23;71.56;98357.25;5085388;28;20056;-66
2021/12/28 02:14:27;;;;;;;12.82;9.60;;;;;;;-0.52;71.84;98307.75;5085212;28;20049;-66
2021/12/28 02:17:01;;;;;;;13.20;10.05;;;;;;;-2.89;71.55;97905.19;5086844;28;20090;-66
2021/12/28 02:19:33;;;;;;;13.23;9.43;;;;;;;-0.25;71.92;98343.44;5089507;28;20046;-66
2021/12/28 02:22:07;;;;;;;14.18;10.10;;;;;;;-0.57;71.68;98301.81;5089582;28;20102;-66
2021/12/28 02:24:39;;;;;;;13.23;9.43;;;;;;;-0.31;72.44;98354.00;5089062;28;20185;-66
2021/12/28 02:27:11;;;;;;;14.75;11.13;;;;;;;-0.27;72.27;98350.44;5089295;28;20082;-65
2021/12/28 02:29:44;;;;;;;14.95;8.90;;;;;;;-0.22;71.41;98350.28;5088813;28;20079;-66
2021/12/28 02:32:16;;;;;;;16.08;11.38;;;;;;;-0.20;71.87;98346.75;5088943;28;20062;-66
2021/12/28 02:34:48;;;;;;;14.73;9.95;;;;;;;-0.20;71.81;98344.16;5088922;28;20094;-66
2021/12/28 02:37:22;;;;;;;16.60;9.35;;;;;;;-0.24;72.17;98345.13;5088893;28;20040;-66
2021/12/28 02:39:55;;;;;;;12.98;8.73;;;;;;;-0.21;72.09;98341.59;5089047;28;20045;-67
2021/12/28 02:42:27;;;;;;;14.05;9.00;;;;;;;-0.20;71.52;98338.09;5088725;28;20040;-66
2021/12/28 02:45:07;;;;;;;12.60;9.25;;;;;;;-0.19;71.84;98337.19;5088553;28;20067;-66
2021/12/28 02:47:43;;;;;;;17.35;9.85;;;;;;;-0.29;72.64;98330.53;5089301;28;20048;-65
2021/12/28 02:50:18;;;;;;;13.55;9.63;;;;;;;-0.31;72.69;98335.78;5071320;28;20036;-65
2021/12/28 02:52:52;;;;;;;12.35;8.98;;;;;;;-0.59;73.03;98274.97;5088506;28;20040;-66
2021/12/28 02:55:26;;;;;;;15.30;9.35;;;;;;;-0.27;72.40;98319.19;5088739;28;20105;-66
2021/12/28 02:58:01;;;;;;;14.43;9.10;;;;;;;-0.31;73.07;98322.75;5088502;28;20044;-66
2021/12/28 03:00:35;;;;;;;;;;;;;;;-0.33;73.87;98324.56;5089155;28;20090;-66
2021/12/28 03:03:10;;;;;;;15.13;10.60;;;;;;;-0.40;73.30;98321.28;5088300;28;19920;-66
2021/12/28 03:05:44;;;;;;;16.45;10.38;;;;;;;-0.40;73.27;98313.47;5088413;28;20339;-66
2021/12/28 03:08:20;;;;;;;14.35;10.38;;;;;;;-0.36;72.67;98309.03;5088182;28;20045;-66
2021/12/28 03:10:53;;;;;;;13.63;9.02;;;;;;;-0.36;72.72;98314.22;5088162;28;20094;-66
2021/12/28 03:13:27;;;;;;;13.57;9.30;;;;;;;-0.34;72.52;98307.22;5088029;28;20041;-66
2021/12/28 03:16:00;;;;;;;14.57;9.80;;;;;;;-0.32;72.31;98292.41;5088343;28;20094;-66
2021/12/28 03:18:33;;;;;;;14.13;9.98;;;;;;;-0.28;72.29;98296.66;5070601;28;20040;-66
2021/12/28 03:21:08;;;;;;;13.35;8.57;;;;;;;-0.27;72.53;98295.75;5070767;28;20239;-66
2021/12/28 03:23:42;;;;;;;12.90;10.00;;;;;;;-0.33;73.00;98284.66;5087959;28;20221;-66
2021/12/28 03:26:15;;;;;;;13.00;9.90;;;;;;;-0.37;73.12;98295.16;5087865;28;20052;-66
2021/12/28 03:28:48;;;;;;;13.35;9.18;;;;;;;-0.38;73.10;98296.06;5086913;28;20110;-67
2021/12/28 03:31:22;;;;;;;14.40;9.98;;;;;;;-0.40;73.09;98292.63;5087447;28;20121;-66
2021/12/28 03:33:53;;;;;;;12.48;8.13;;;;;;;-0.42;73.45;98294.44;5087881;28;20170;-66
2021/12/28 03:36:22;;;;;;;11.25;8.25;;;;;;;-0.41;73.53;98295.28;5087852;28;20053;-66
2021/12/28 03:38:52;;;;;;;10.98;7.85;;;;;;;-0.42;72.91;98291.81;5087804;28;20216;-66
2021/12/28 03:41:23;;;;;;;13.98;8.93;;;;;;;-0.46;73.92;98299.75;5087769;28;20064;-66
2021/12/28 03:43:53;;;;;;;13.80;10.52;;;;;;;-0.44;73.81;98304.03;5087489;28;20090;-66
2021/12/28 03:46:23;;;;;;;12.60;8.35;;;;;;;-0.47;73.92;98300.66;5087856;28;20064;-66
2021/12/28 03:48:52;;;;;;;15.15;10.98;;;;;;;-1.94;74.47;98106.06;5087861;28;20082;-66
2021/12/28 03:51:22;;;;;;;15.55;9.70;;;;;;;-1.83;73.85;98077.22;5087794;28;20053;-66
2021/12/28 03:53:54;;;;;;;11.63;8.45;;;;;;;-0.47;74.11;98301.50;5087782;28;20112;-66
2021/12/28 03:56:22;;;;;;;12.80;8.95;;;;;;;-0.48;74.47;98297.19;5070252;28;20259;-66
2021/12/28 03:58:53;;;;;;;13.52;9.82;;;;;;;-2.37;73.85;98018.03;5087698;28;20048;-66
2021/12/28 04:01:26;;;;;;;12.18;8.95;;;;;;;-0.50;74.26;98308.56;5087617;28;20076;-66
2021/12/28 04:03:53;;;;;;;14.80;10.02;;;;;;;-0.72;74.42;98280.50;5087008;28;20056;-66
2021/12/28 04:06:24;;;;;;;12.52;9.05;;;;;;;-0.57;74.68;98315.69;5087167;28;20297;-66
2021/12/28 04:08:56;;;;;;;15.20;9.60;;;;;;;-0.54;74.27;98317.34;5070060;28;20048;-66
2021/12/28 04:11:27;;;;;;;15.02;10.05;;;;;;;-0.55;74.19;98319.09;5087085;28;20080;-66
2021/12/28 04:13:57;;;;;;;14.85;9.98;;;;;;;-0.90;74.57;98309.59;5087081;28;20052;-66
2021/12/28 04:16:24;;;;;;;14.23;9.40;;;;;;;-0.55;74.48;98326.03;5086902;28;20097;-66
2021/12/28 04:18:55;;;;;;;16.15;10.70;;;;;;;-0.61;74.93;98326.22;5087271;28;20235;-65
2021/12/28 04:21:25;;;;;;;14.25;10.57;;;;;;;-0.58;74.26;98321.78;5087205;28;20112;-65
2021/12/28 04:23:56;;;;;;;12.35;9.18;;;;;;;-1.43;74.68;98199.16;5086879;28;20089;-66
2021/12/28 04:26:26;;;;;;;12.32;9.63;;;;;;;-2.05;74.49;98069.13;5069573;28;20049;-66
2021/12/28 04:28:56;;;;;;;13.55;8.98;;;;;;;-2.10;75.14;98064.06;5087025;28;20243;-66
2021/12/28 04:31:26;;;;;;;12.38;9.27;;;;;;;-0.62;74.68;98309.75;5086947;28;20106;-66
2021/12/28 04:33:56;;;;;;;12.23;8.38;;;;;;;-0.59;74.21;98306.19;5087277;28;20101;-66
2021/12/28 04:36:26;;;;;;;12.80;9.43;;;;;;;-0.59;74.38;98309.66;5086889;28;20094;-65
2021/12/28 04:38:58;;;;;;;15.65;9.55;;;;;;;-0.66;75.19;98313.31;5086332;28;20204;-65
2021/12/28 04:41:27;;;;;;;13.70;9.98;;;;;;;-0.67;74.98;98314.22;5086833;28;20040;-66
2021/12/28 04:44:00;;;;;;;17.67;11.27;;;;;;;-0.61;74.22;98316.66;5086479;28;20047;-65
2021/12/28 04:46:27;;;;;;;13.32;9.88;;;;;;;-0.60;74.78;98313.16;5086147;28;20086;-66
2021/12/28 04:48:58;;;;;;;13.75;9.15;;;;;;;-0.61;74.64;98310.59;5086472;28;20177;-65
2021/12/28 04:51:28;;;;;;;12.25;9.32;;;;;;;-0.60;74.73;98320.09;5086625;28;20055;-66
2021/12/28 04:54:05;;;;;;;14.93;8.52;;;;;;;-0.57;74.55;98325.22;5086254;28;20048;-65
2021/12/28 04:56:33;;;;;;;12.23;8.65;;;;;;;-0.60;75.11;98323.56;5086424;28;20049;-66
2021/12/28 04:59:03;;;;;;;13.38;8.90;;;;;;;-0.61;74.66;98314.06;5086232;28;20103;-66
2021/12/28 05:01:36;;;;;;;14.70;9.40;;;;;;;-0.67;74.96;98314.22;5086453;28;20252;-64
2021/12/28 05:04:04;;;;;;;13.38;9.70;;;;;;;-0.69;75.10;98305.59;5086103;28;20056;-64
2021/12/28 05:06:36;;;;;;;19.33;10.85;;;;;;;-0.69;75.62;98310.78;5068827;28;20075;-64
2021/12/28 05:09:08;;;;;;;18.30;10.75;;;;;;;-0.71;75.79;98309.97;5085868;28;20052;-64
2021/12/28 05:11:40;;;;;;;14.70;11.07;;;;;;;-0.71;75.79;98315.19;5086137;28;20106;-64
2021/12/28 05:14:15;;;;;;;13.70;9.60;;;;;;;-0.66;75.30;98310.72;5086248;28;20090;-66
2021/12/28 05:16:48;;;;;;;;;;;;;;;-0.71;76.42;98313.44;5086573;28;20048;-64
2021/12/28 05:19:20;;;;;;;16.98;11.60;;;;;;;-0.72;75.47;98311.72;5085540;28;20057;-65
2021/12/28 05:21:52;;;;;;;16.08;11.63;;;;;;;-0.73;75.79;98329.97;5085532;28;20297;-64
2021/12/28 05:24:25;;;;;;;13.82;10.40;;;;;;;-0.73;76.00;98328.25;5085697;28;20094;-65
2021/12/28 05:26:57;;;;;;;15.77;11.43;;;;;;;-0.76;75.90;98324.88;5085626;28;20044;-65
2021/12/28 05:29:29;;;;;;;16.33;11.90;;;;;;;-0.82;76.84;98327.63;5085827;28;20224;-65
2021/12/28 05:32:02;;;;;;;16.00;10.35;;;;;;;-0.75;75.63;98327.44;5085843;28;20048;-65
2021/12/28 05:34:34;;;;;;;17.40;11.07;;;;;;;-0.71;75.87;98318.66;5085589;28;20044;-65
2021/12/28 05:37:06;;;;;;;17.48;11.57;;;;;;;-0.68;75.85;98317.72;5085791;28;20048;-65
2021/12/28 05:39:40;;;;;;;17.33;11.60;;;;;;;-0.73;76.17;98322.19;5085741;28;20048;-65
2021/12/28 05:42:12;;;;;;;17.08;12.35;;;;;;;-0.73;76.34;98322.19;5085403;28;20048;-65
2021/12/28 05:44:45;;;;;;;16.67;10.93;;;;;;;-0.71;75.97;98328.19;5085597;28;20044;-65
2021/12/28 05:47:18;;;;;;;15.85;11.13;;;;;;;-0.72;76.41;98331.69;5085220;28;20232;-65
2021/12/28 05:49:51;;;;;;;16.08;10.93;;;;;;;-0.70;76.68;98332.50;5067850;28;20247;-65
2021/12/28 05:52:23;;;;;;;16.98;10.98;;;;;;;-0.69;76.23;98321.22;5084594;28;20040;-65
2021/12/28 05:54:57;;;;;;;16.27;11.30;;;;;;;-0.74;76.57;98331.72;5085619;28;20289;-65
2021/12/28 05:57:30;;;;;;;19.40;12.18;;;;;;;-0.74;76.27;98336.09;5085665;28;20040;-65
2021/12/28 06:00:04;;;;;;;16.48;10.88;;;;;;;-0.72;76.45;98321.28;5085592;28;20086;-65
2021/12/28 06:02:37;;;;;;;25.23;12.35;;;;;;;-0.69;76.44;98321.22;5085046;28;20082;-64
2021/12/28 06:05:10;;;;;;;15.02;10.70;;;;;;;-0.68;76.13;98315.09;5085471;28;20040;-65
2021/12/28 06:07:42;;;;;;;15.68;11.40;;;;;;;-1.47;76.42;98244.31;5085037;28;20048;-65
2021/12/28 06:10:16;;;;;;;16.67;11.07;;;;;;;-0.65;76.39;98328.03;5085326;28;20289;-65
2021/12/28 06:12:49;;;;;;;17.55;9.85;;;;;;;-0.68;76.88;98331.56;5085083;28;20347;-64
2021/12/28 06:15:22;;;;;;;19.25;12.77;;;;;;;-0.68;76.70;98336.78;5085067;28;20040;-64
2021/12/28 06:17:54;;;;;;;16.90;11.30;;;;;;;-0.61;76.03;98334.88;5085118;28;20044;-64
2021/12/28 06:20:26;;;;;;;17.10;11.23;;;;;;;-0.56;76.00;98337.34;5085056;28;20045;-65
2021/12/28 06:23:00;;;;;;;17.08;12.02;;;;;;;-0.60;76.36;98341.78;5085083;28;20045;-65
2021/12/28 06:25:34;;;;;;;20.08;13.10;;;;;;;-0.67;77.06;98332.44;5085039;28;20063;-65
2021/12/28 06:28:06;;;;;;;21.17;13.40;;;;;;;-0.72;77.69;98329.09;5085270;28;20041;-64
2021/12/28 06:30:38;;;;;;;18.75;11.80;;;;;;;-1.04;77.77;98262.25;5064066;28;20097;-64
2021/12/28 06:33:11;;;;;;;21.50;13.30;;;;;;;-0.78;78.12;98322.31;5065244;28;20045;-64
2021/12/28 06:35:43;;;;;;;20.17;13.32;;;;;;;-0.83;78.65;98318.97;5065025;28;20041;-65
2021/12/28 06:38:15;;;;;;;19.13;12.30;;;;;;;-0.82;78.37;98319.81;5065283;28;20045;-65
2021/12/28 06:40:49;;;;;;;23.63;14.40;;;;;;;-0.88;79.13;98313.03;5065028;28;20075;-65
2021/12/28 06:43:22;;;;;;;22.37;12.67;;;;;;;-0.80;78.14;98313.69;5064837;28;20096;-65
2021/12/28 06:45:55;;;;;;;20.88;14.18;;;;;;;-1.90;78.17;98122.41;5064750;28;20045;-65
2021/12/28 06:48:27;;;;;;;23.05;13.93;;;;;;;-0.82;78.91;98299.88;5064777;28;20041;-65
2021/12/28 06:50:59;;;;;;;23.52;14.85;;;;;;;-0.82;78.67;98297.25;5064750;28;20079;-65
2021/12/28 06:53:31;;;;;;;24.25;14.95;;;;;;;-2.44;79.05;98022.50;5064660;28;20041;-65
2021/12/28 06:56:06;;;;;;;20.95;15.10;;;;;;;-0.80;79.10;98308.47;5064702;28;20083;-65
2021/12/28 06:58:38;;;;;;;26.15;17.17;;;;;;;-0.83;79.24;98294.69;5064931;28;20041;-65
2021/12/28 07:01:10;;;;;;;25.67;15.95;;;;;;;-0.81;79.01;98288.56;5064679;28;20091;-65
2021/12/28 07:03:42;;;;;;;22.85;14.98;;;;;;;-0.81;79.15;98298.13;5066776;28;20087;-65
2021/12/28 07:06:16;;;;;;;27.00;16.65;;;;;;;-0.84;79.72;98309.44;5068464;28;20090;-65
2021/12/28 07:08:48;;;;;;;26.25;15.10;;;;;;;-0.82;78.93;98297.25;5068552;28;20049;-65
2021/12/28 07:11:22;;;;;;;26.20;15.65;;;;;;;-0.77;79.59;98299.75;5068531;28;20091;-65
2021/12/28 07:13:54;;;;;;;27.20;17.40;;;;;;;-0.80;79.48;98294.63;5067975;28;20044;-65
2021/12/28 07:16:26;;;;;;;31.83;18.80;;;;;;;-0.82;79.48;98293.81;5068292;28;20049;-65
2021/12/28 07:18:58;;;;;;;31.23;18.48;;;;;;;-0.84;80.19;98304.25;5067842;28;20098;-64
2021/12/28 07:21:30;;;;;;;30.05;20.30;;;;;;;-0.83;79.91;98297.28;5068154;28;20297;-64
2021/12/28 07:24:02;;;;;;;26.15;15.95;;;;;;;-0.79;80.05;98291.13;5067976;28;20091;-65
2021/12/28 07:26:37;;;;;;;30.85;19.35;;;;;;;-0.80;80.16;98339.69;5067986;28;20240;-65
2021/12/28 07:29:11;;;;;;;31.73;18.60;;;;;;;-0.79;79.94;98297.19;5067977;28;20098;-65
2021/12/28 07:31:40;;;;;;;30.40;19.10;;;;;;;-0.74;79.55;98303.13;5085452;28;20048;-65
2021/12/28 07:34:10;;;;;;;31.65;18.73;;;;;;;-0.79;80.35;98304.13;5087585;28;20036;-65
2021/12/28 07:36:40;;;;;;;33.05;20.35;;;;;;;-0.79;80.60;98317.13;5087604;28;20064;-65
2021/12/28 07:39:10;;;;;;;33.45;19.50;;;;;;;-0.81;80.93;98324.13;5087608;28;20048;-65
2021/12/28 07:41:42;;;;;;;39.90;21.27;;;;;;;-0.87;80.91;98327.75;5087522;28;20045;-65
2021/12/28 07:44:11;;;;;;;27.45;15.07;;;;;;;-0.81;80.74;98348.41;5087341;28;20280;-65
2021/12/28 07:46:41;;;;;;;38.88;20.13;;;;;;;-0.75;80.48;98336.97;5087243;28;20036;-65
2021/12/28 07:49:11;;;;;;;36.28;20.73;;;;;;;-0.71;80.25;98333.41;5087404;28;20040;-65
2021/12/28 07:51:42;;;;;;;32.95;18.90;;;;;;;-0.71;80.29;98338.59;5087538;28;20048;-65
2021/12/28 07:54:12;;;;;;;28.15;19.48;;;;;;;-0.66;79.87;98346.28;5087533;28;20036;-65
2021/12/28 07:56:43;;;;;;;37.08;22.25;;;;;;;-0.74;80.87;98334.34;5087465;28;20346;-65
2021/12/28 07:59:12;;;;;;;41.05;22.38;;;;;;;-0.71;80.96;98318.66;5087368;28;20041;-65
2021/12/28 08:01:43;;;;;;;37.58;21.50;;;;;;;-2.12;81.38;98088.34;5087193;28;20048;-65
2021/12/28 08:04:13;;;;;;;34.08;21.55;;;;;;;-1.12;81.94;98272.88;5087214;28;20041;-65
2021/12/28 08:06:44;;;;;;;39.22;21.80;;;;;;;-0.80;81.62;98328.44;5087443;28;20045;-65
2021/12/28 08:09:13;;;;;;;40.03;23.00;;;;;;;-0.74;81.34;98329.13;5086933;28;20347;-65
2021/12/28 08:11:45;;;;;;;37.25;19.75;;;;;;;-0.77;81.67;98336.16;5086989;28;20036;-65
2021/12/28 08:14:14;;;;;;;38.22;22.75;;;;;;;-0.77;82.16;98328.34;5086290;28;20044;-65
2021/12/28 08:16:44;;;;;;;37.80;22.42;;;;;;;-0.83;82.42;98334.56;5087182;28;20051;-65
2021/12/28 08:19:15;;;;;;;46.00;22.55;;;;;;;-0.81;82.25;98332.78;5087126;28;20323;-65
2021/12/28 08:21:45;;;;;;;41.45;22.65;;;;;;;-0.82;82.67;98338.03;5087122;28;20071;-65
2021/12/28 08:24:15;;;;;;;44.60;22.88;;;;;;;-0.84;82.42;98347.63;5086738;28;20044;-65
2021/12/28 08:26:47;;;;;;;44.20;21.80;;;;;;;-0.84;83.16;98345.03;5086665;28;20041;-68
2021/12/28 08:29:15;;;;;;;38.67;22.92;;;;;;;-0.83;83.08;98364.94;5086634;28;20090;-65
2021/12/28 08:31:46;;;;;;;47.85;24.48;;;;;;;-0.82;82.83;98331.06;5086314;28;20220;-65
2021/12/28 08:34:16;;;;;;;42.53;22.52;;;;;;;-0.80;83.08;98325.84;5087364;28;20024;-65
2021/12/28 08:36:46;;;;;;;45.63;24.30;;;;;;;-0.74;82.53;98328.28;5086786;28;20041;-65
2021/12/28 08:39:17;;;;;;;46.00;24.27;;;;;;;-0.80;83.05;98329.28;5086704;28;20086;-65
2021/12/28 08:41:48;;;;;;;50.40;27.70;;;;;;;-0.79;83.06;98341.41;5086357;28;20251;-65
2021/12/28 08:44:17;;;;;;;41.80;22.33;;;;;;;-0.80;82.92;98318.88;5086933;28;20048;-65
2021/12/28 08:46:47;;;;;;;45.45;26.77;;;;;;;-0.84;83.28;98337.22;5086600;28;20047;-67
2021/12/28 08:49:17;;;;;;;49.25;27.45;;;;;;;-0.85;83.42;98328.56;5086338;28;20044;-66
2021/12/28 08:51:48;;;;;;;45.05;25.23;;;;;;;-0.81;83.07;98335.38;5085813;28;20247;-66
2021/12/28 08:54:18;;;;;;;41.92;22.85;;;;;;;-0.80;83.18;98328.44;5086224;28;20106;-67
2021/12/28 08:56:51;;;;;;;45.28;22.80;;;;;;;-0.81;83.50;98326.72;5086082;28;20046;-66
2021/12/28 08:59:23;;;;;;;43.55;22.48;;;;;;;-0.81;83.30;98321.53;5086024;28;20040;-66
2021/12/28 09:01:55;;;;;;;42.75;21.58;;;;;;;-1.93;82.96;98174.44;5086097;28;20044;-66
2021/12/28 09:04:24;;;;;;;48.53;24.92;;;;;;;-0.82;83.77;98328.47;5086046;28;20379;-66
2021/12/28 09:06:54;;;;;;;43.20;22.92;;;;;;;-1.10;83.41;98273.69;5086065;28;20075;-66
2021/12/28 09:09:24;;;;;;;41.10;24.27;;;;;;;-0.80;83.64;98324.09;5085680;28;20040;-66
2021/12/28 09:11:56;;;;;;;41.58;19.20;;;;;;;-0.83;83.97;98324.16;5085502;28;20041;-66
2021/12/28 09:14:25;;;;;;;42.60;24.95;;;;;;;-0.80;83.46;98323.22;5085993;28;20100;-66
2021/12/28 09:16:55;;;;;;;38.20;20.48;;;;;;;-0.77;83.78;98324.00;5085986;28;20062;-66
2021/12/28 09:19:25;;;;;;;41.83;24.10;;;;;;;-0.79;83.98;98319.75;5085757;28;20100;-66
2021/12/28 09:21:55;;;;;;;54.22;24.55;;;;;;;-0.86;84.22;98307.78;5085635;28;20070;-66
2021/12/28 09:24:26;;;;;;;48.70;25.40;;;;;;;-0.88;84.34;98309.56;5085499;28;20064;-66
2021/12/28 09:26:57;;;;;;;53.53;25.67;;;;;;;-0.85;84.56;98314.69;5084733;28;20051;-66
2021/12/28 09:29:29;;;;;;;42.10;22.25;;;;;;;-1.66;83.85;98165.97;5085294;28;20087;-66
2021/12/28 09:31:57;;;;;;;44.08;23.83;;;;;;;-0.78;84.02;98311.03;5065696;28;20057;-66
2021/12/28 09:34:28;;;;;;;40.20;20.80;;;;;;;-0.79;83.95;98304.13;5065646;28;20044;-66
2021/12/28 09:36:58;;;;;;;48.17;25.20;;;;;;;-0.81;84.00;98301.56;5065739;28;20056;-66
2021/12/28 09:39:29;;;;;;;47.75;23.77;;;;;;;-0.85;84.36;98305.16;5065333;28;20213;-66
2021/12/28 09:42:01;;;;;;;43.47;24.05;;;;;;;-0.88;84.34;98281.81;5065400;28;20045;-66
2021/12/28 09:44:35;;;;;;;46.13;23.48;;;;;;;-0.83;84.29;98282.53;5065313;28;20045;-66
2021/12/28 09:47:08;;;;;;;45.15;22.50;;;;;;;-0.80;84.29;98282.47;5064486;28;20258;-66
2021/12/28 09:49:40;;;;;;;43.33;21.17;;;;;;;-0.80;84.27;98279.84;5065093;28;20198;-66
2021/12/28 09:52:14;;;;;;;45.22;23.63;;;;;;;-0.77;84.28;98279.78;5065422;28;20045;-66
2021/12/28 09:54:46;;;;;;;54.17;26.03;;;;;;;-0.85;84.66;98275.69;5065253;28;20090;-66
2021/12/28 09:57:20;;;;;;;41.35;22.65;;;;;;;-0.86;84.75;98281.78;5065581;28;20041;-66
2021/12/28 09:59:52;;;;;;;39.08;22.02;;;;;;;-0.84;84.71;98277.38;5064555;28;20091;-66
2021/12/28 10:02:25;;;;;;;40.95;21.88;;;;;;;-0.81;84.60;98272.09;5065491;28;20041;-66
2021/12/28 10:04:59;;;;;;;34.72;19.20;;;;;;;-0.84;84.75;98270.44;5065280;28;20057;-66
2021/12/28 10:07:35;;;;;;;40.65;21.52;;;;;;;-0.85;84.62;98262.66;5065409;28;20343;-67
2021/12/28 10:10:09;;;;;;;38.50;19.30;;;;;;;-0.77;84.31;98258.97;5065258;28;20041;-66
2021/12/28 10:12:45;;;;;;;33.50;18.65;;;;;;;-1.01;84.26;98231.84;5065288;28;20045;-66
2021/12/28 10:15:19;;;;;;;37.40;19.77;;;;;;;-0.69;84.05;98253.56;5065071;28;20224;-66
2021/12/28 10:17:57;;;;;;;41.80;20.45;;;;;;;-0.76;84.26;98260.66;5065045;28;20087;-66
2021/12/28 10:20:31;;;;;;;40.90;21.42;;;;;;;-0.80;84.22;98256.44;5065077;28;20049;-66
2021/12/28 10:23:06;;;;;;;35.53;20.50;;;;;;;-0.76;84.00;98257.22;5064939;28;20041;-66
2021/12/28 10:25:40;;;;;;;36.97;20.65;;;;;;;-0.72;84.28;98251.88;5065026;28;20048;-66
2021/12/28 10:28:16;;;;;;;36.50;19.07;;;;;;;-0.68;84.16;98242.25;5065072;28;20045;-66
2021/12/28 10:30:52;;;;;;;35.95;19.75;;;;;;;-0.70;84.14;98244.03;5075492;28;20504;-66
2021/12/28 10:33:28;;;;;;;33.13;18.25;;;;;;;-0.69;84.05;98249.19;5085058;28;20090;-66
2021/12/28 10:36:03;;;;;;;33.63;18.65;;;;;;;-0.68;83.86;98247.44;5067690;28;20048;-66
2021/12/28 10:38:38;;;;;;;37.78;21.35;;;;;;;-0.72;84.04;98248.44;5087724;28;20292;-66
2021/12/28 10:41:12;;;;;;;37.72;20.48;;;;;;;-0.72;84.01;98248.44;5088837;28;20087;-66
2021/12/28 10:43:49;;;;;;;38.65;22.27;;;;;;;-0.71;84.06;98244.94;5089006;28;20285;-66
2021/12/28 10:46:25;;;;;;;38.10;20.77;;;;;;;-0.70;84.31;98236.22;5088829;28;20082;-67
2021/12/28 10:49:00;;;;;;;34.40;19.00;;;;;;;-0.71;84.26;98234.53;5088515;28;20090;-67
2021/12/28 10:51:39;;;;;;;34.03;18.13;;;;;;;-0.68;83.88;98234.44;5088481;28;20086;-66
2021/12/28 10:54:13;;;;;;;31.73;18.17;;;;;;;-0.64;83.97;98230.84;5088599;28;20350;-67
2021/12/28 10:56:52;;;;;;;29.25;15.15;;;;;;;-0.61;83.88;98233.38;5088527;28;20041;-66
2021/12/28 10:59:30;;;;;;;34.05;17.35;;;;;;;-0.64;83.82;98225.66;5070968;28;20247;-66
2021/12/28 11:02:00;;;;;;;29.88;14.85;;;;;;;-0.60;83.59;98229.03;5088387;28;20036;-66
2021/12/28 11:04:32;;;;;;;29.38;17.58;;;;;;;-0.65;84.10;98229.16;5088362;28;20046;-66
2021/12/28 11:07:04;;;;;;;23.00;13.43;;;;;;;-0.61;83.72;98227.31;5088468;28;20060;-66
2021/12/28 11:09:45;;;;;;;31.48;16.75;;;;;;;-0.61;84.02;98233.38;5088033;28;20279;-66
2021/12/28 11:12:19;;;;;;;25.88;15.85;;;;;;;-2.37;83.79;97935.84;5088380;28;20174;-66
2021/12/28 11:14:53;;;;;;;22.42;14.48;;;;;;;-0.65;84.20;98225.69;5088035;28;20051;-66
2021/12/28 11:17:32;;;;;;;28.85;14.43;;;;;;;-0.65;83.92;98215.28;5087796;28;20040;-66
2021/12/28 11:20:05;;;;;;;26.08;13.65;;;;;;;-0.62;84.05;98205.66;5087889;28;20044;-66
2021/12/28 11:22:38;;;;;;;23.58;13.70;;;;;;;-0.62;83.83;98203.03;5087733;28;20040;-67
2021/12/28 11:25:18;;;;;;;22.15;14.02;;;;;;;-0.60;83.97;98216.00;5087946;28;20048;-67
2021/12/28 11:28:15;;;;;;;27.13;15.88;;;;;;;-0.63;84.14;98198.75;5088152;28;20040;-66
2021/12/28 11:31:06;;;;;;;22.13;13.43;;;;;;;-0.65;84.09;98192.72;5087551;28;20063;-67
2021/12/28 11:33:53;;;;;;;19.77;13.15;;;;;;;-0.66;84.22;98185.81;5087722;28;20040;-67
2021/12/28 11:36:28;;;;;;;25.08;13.05;;;;;;;-0.60;83.88;98180.44;5087615;28;20253;-66
2021/12/28 11:39:03;;;;;;;20.90;12.10;;;;;;;-0.67;84.00;98184.09;5087500;28;20048;-66
2021/12/28 11:41:35;;;;;;;19.60;11.70;;;;;;;-0.67;83.90;98191.91;5087640;28;20041;-66
2021/12/28 11:44:08;;;;;;;20.98;12.70;;;;;;;-0.72;84.00;98194.66;5087251;28;20036;-66
2021/12/28 11:46:42;;;;;;;24.13;13.30;;;;;;;-1.04;83.98;98133.09;5087656;28;20052;-67